createdAt,value
2023-03-15T00:00:43.600Z,95180.00
2023-03-15T00:01:43.627Z,95178.00
2023-03-15T00:02:43.873Z,95176.00
2023-03-15T00:03:43.793Z,95170.00
2023-03-15T00:04:43.776Z,95167.00
2023-03-15T00:05:43.839Z,95170.00
2023-03-15T00:06:43.882Z,95172.00
2023-03-15T00:07:42.951Z,95168.00
2023-03-15T00:08:43.998Z,95168.00
2023-03-15T00:09:44.058Z,95168.00
2023-03-15T00:10:44.090Z,95170.00
2023-03-15T00:11:44.162Z,95170.00
2023-03-15T00:12:44.218Z,95170.00
2023-03-15T00:13:44.274Z,95172.00
2023-03-15T00:14:43.321Z,95172.00
2023-03-15T00:15:44.422Z,95174.00
2023-03-15T00:16:44.568Z,95168.00
2023-03-15T00:17:44.514Z,95165.00
2023-03-15T00:18:43.564Z,95157.00
2023-03-15T00:19:43.619Z,95155.00
2023-03-15T00:20:43.693Z,95153.00
2023-03-15T00:21:44.763Z,95155.00
2023-03-15T00:22:44.809Z,95157.00
2023-03-15T00:23:44.881Z,95157.00
2023-03-15T00:24:43.949Z,95155.00
2023-03-15T00:25:44.991Z,95155.00
2023-03-15T00:26:45.057Z,95155.00
2023-03-15T00:27:45.124Z,95153.00
2023-03-15T00:28:44.172Z,95145.00
2023-03-15T00:29:45.210Z,95143.00
2023-03-15T00:30:44.298Z,95143.00
2023-03-15T00:31:45.344Z,95143.00
2023-03-15T00:32:44.457Z,95141.00
2023-03-15T00:33:44.434Z,95139.00
2023-03-15T00:34:45.493Z,95137.00
2023-03-15T00:35:45.719Z,95137.00
2023-03-15T00:36:44.609Z,95133.00
2023-03-15T00:37:44.677Z,95131.00
2023-03-15T00:38:45.713Z,95129.00
2023-03-15T00:39:45.755Z,95129.00
2023-03-15T00:40:45.805Z,95127.00
2023-03-15T00:41:44.851Z,95127.00
2023-03-15T00:42:45.938Z,95125.00
2023-03-15T00:43:45.979Z,95119.00
2023-03-15T00:44:45.042Z,95115.00
2023-03-15T00:45:46.097Z,95104.00
2023-03-15T00:46:45.218Z,95104.00
2023-03-15T00:47:46.285Z,95106.00
2023-03-15T00:48:46.296Z,95112.00
2023-03-15T00:49:46.358Z,95106.00
2023-03-15T00:50:46.409Z,95104.00
2023-03-15T00:51:46.487Z,95106.00
2023-03-15T00:52:46.540Z,95104.00
2023-03-15T00:53:45.587Z,95106.00
2023-03-15T00:54:46.644Z,95106.00
2023-03-15T00:55:46.687Z,95106.00
2023-03-15T00:56:46.756Z,95106.00
2023-03-15T00:57:45.819Z,95104.00
2023-03-15T00:58:46.898Z,95104.00
2023-03-15T00:59:46.944Z,95106.00
2023-03-15T01:00:47.019Z,95112.00
2023-03-15T01:01:47.157Z,95112.00
2023-03-15T01:02:46.152Z,95115.00
2023-03-15T01:03:46.216Z,95117.00
2023-03-15T01:04:47.253Z,95115.00
2023-03-15T01:05:46.311Z,95117.00
2023-03-15T01:06:47.393Z,95115.00
2023-03-15T01:07:47.450Z,95121.00
2023-03-15T01:08:47.517Z,95121.00
2023-03-15T01:09:48.602Z,95121.00
2023-03-15T01:10:47.633Z,95123.00
2023-03-15T01:11:47.690Z,95119.00
2023-03-15T01:12:47.762Z,95115.00
2023-03-15T01:13:47.841Z,95114.00
2023-03-15T01:14:47.900Z,95112.00
2023-03-15T01:15:48.029Z,95106.00
2023-03-15T01:16:48.036Z,95106.00
2023-03-15T01:17:48.091Z,95100.00
2023-03-15T01:18:48.174Z,95102.00
2023-03-15T01:19:48.234Z,95098.00
2023-03-15T01:20:48.281Z,95096.00
2023-03-15T01:21:48.329Z,95100.00
2023-03-15T01:22:48.381Z,95100.00
2023-03-15T01:23:48.465Z,95102.00
2023-03-15T01:24:48.514Z,95102.00
2023-03-15T01:25:48.561Z,95098.00
2023-03-15T01:26:48.639Z,95094.00
2023-03-15T01:27:47.736Z,95088.00
2023-03-15T01:28:48.793Z,95086.00
2023-03-15T01:29:48.833Z,95090.00
2023-03-15T01:30:49.750Z,95090.00
2023-03-15T01:31:49.066Z,95092.00
2023-03-15T01:32:49.216Z,95096.00
2023-03-15T01:33:48.087Z,95094.00
2023-03-15T01:34:49.141Z,95090.00
2023-03-15T01:35:49.298Z,95088.00
2023-03-15T01:36:49.288Z,95086.00
2023-03-15T01:37:49.369Z,95080.00
2023-03-15T01:38:49.487Z,95074.00
2023-03-15T01:39:49.460Z,95072.00
2023-03-15T01:40:49.524Z,95068.00
2023-03-15T01:41:49.585Z,95067.00
2023-03-15T01:42:49.642Z,95065.00
2023-03-15T01:43:48.699Z,95063.00
2023-03-15T01:44:49.779Z,95059.00
2023-03-15T01:45:49.853Z,95057.00
2023-03-15T01:46:49.955Z,95057.00
2023-03-15T01:47:49.960Z,95059.00
2023-03-15T01:48:50.000Z,95063.00
2023-03-15T01:49:50.054Z,95070.00
2023-03-15T01:50:50.093Z,95078.00
2023-03-15T01:51:50.166Z,95084.00
2023-03-15T01:52:49.182Z,95080.00
2023-03-15T01:53:50.239Z,95074.00
2023-03-15T01:54:50.279Z,95072.00
2023-03-15T01:55:50.320Z,95074.00
2023-03-15T01:56:50.374Z,95078.00
2023-03-15T01:57:50.407Z,95082.00
2023-03-15T01:58:50.451Z,95080.00
2023-03-15T01:59:49.495Z,95074.00
2023-03-15T02:00:49.577Z,95067.00
2023-03-15T02:01:49.674Z,95061.00
2023-03-15T02:02:50.566Z,95061.00
2023-03-15T02:03:49.630Z,95063.00
2023-03-15T02:04:50.710Z,95070.00
2023-03-15T02:05:50.773Z,95078.00
2023-03-15T02:06:50.828Z,95080.00
2023-03-15T02:07:50.919Z,95072.00
2023-03-15T02:08:50.956Z,95063.00
2023-03-15T02:09:50.999Z,95053.00
2023-03-15T02:10:51.057Z,95051.00
2023-03-15T02:11:50.148Z,95053.00
2023-03-15T02:12:50.202Z,95057.00
2023-03-15T02:13:51.255Z,95061.00
2023-03-15T02:14:51.309Z,95061.00
2023-03-15T02:15:51.362Z,95057.00
2023-03-15T02:16:51.517Z,95057.00
2023-03-15T02:17:51.480Z,95055.00
2023-03-15T02:18:51.531Z,95051.00
2023-03-15T02:19:51.561Z,95051.00
2023-03-15T02:20:51.594Z,95053.00
2023-03-15T02:21:50.589Z,95057.00
2023-03-15T02:22:51.637Z,95065.00
2023-03-15T02:23:51.722Z,95070.00
2023-03-15T02:24:50.774Z,95078.00
2023-03-15T02:25:51.820Z,95084.00
2023-03-15T02:26:52.046Z,95094.00
2023-03-15T02:27:50.942Z,95098.00
2023-03-15T02:28:52.006Z,95104.00
2023-03-15T02:29:52.068Z,95112.00
2023-03-15T02:30:52.112Z,95127.00
2023-03-15T02:31:52.246Z,95131.00
2023-03-15T02:32:51.311Z,95143.00
2023-03-15T02:33:52.297Z,95155.00
2023-03-15T02:34:52.344Z,95170.00
2023-03-15T02:35:52.485Z,95178.00
2023-03-15T02:36:52.501Z,95188.00
2023-03-15T02:37:52.569Z,95200.00
2023-03-15T02:38:52.637Z,95208.00
2023-03-15T02:39:52.696Z,95215.00
2023-03-15T02:40:52.756Z,95229.00
2023-03-15T02:41:52.772Z,95233.00
2023-03-15T02:42:51.830Z,95239.00
2023-03-15T02:43:52.859Z,95243.00
2023-03-15T02:44:51.896Z,95247.00
2023-03-15T02:45:53.055Z,95251.00
2023-03-15T02:46:52.035Z,95243.00
2023-03-15T02:47:52.035Z,95241.00
2023-03-15T02:48:53.074Z,95243.00
2023-03-15T02:49:53.117Z,95247.00
2023-03-15T02:50:53.188Z,95253.00
2023-03-15T02:51:53.748Z,95245.00
2023-03-15T02:52:53.296Z,95243.00
2023-03-15T02:53:53.355Z,95245.00
2023-03-15T02:54:53.409Z,95247.00
2023-03-15T02:55:53.532Z,95247.00
2023-03-15T02:56:53.538Z,95249.00
2023-03-15T02:57:53.628Z,95253.00
2023-03-15T02:58:52.671Z,95249.00
2023-03-15T02:59:53.723Z,95249.00
2023-03-15T03:00:54.133Z,95253.00
2023-03-15T03:01:52.854Z,95257.00
2023-03-15T03:02:53.912Z,95255.00
2023-03-15T03:03:53.959Z,95253.00
2023-03-15T03:04:54.003Z,95253.00
2023-03-15T03:05:54.068Z,95247.00
2023-03-15T03:06:54.095Z,95245.00
2023-03-15T03:07:54.159Z,95243.00
2023-03-15T03:08:54.207Z,95247.00
2023-03-15T03:09:54.274Z,95247.00
2023-03-15T03:10:54.320Z,95245.00
2023-03-15T03:11:54.402Z,95245.00
2023-03-15T03:12:53.492Z,95245.00
2023-03-15T03:13:54.447Z,95243.00
2023-03-15T03:14:54.513Z,95245.00
2023-03-15T03:15:54.570Z,95247.00
2023-03-15T03:16:54.602Z,95243.00
2023-03-15T03:17:53.684Z,95243.00
2023-03-15T03:18:54.681Z,95241.00
2023-03-15T03:19:54.725Z,95239.00
2023-03-15T03:20:54.790Z,95245.00
2023-03-15T03:21:54.809Z,95243.00
2023-03-15T03:22:54.862Z,95241.00
2023-03-15T03:23:54.892Z,95245.00
2023-03-15T03:24:54.931Z,95245.00
2023-03-15T03:25:54.991Z,95247.00
2023-03-15T03:26:54.008Z,95253.00
2023-03-15T03:27:55.058Z,95257.00
2023-03-15T03:28:54.087Z,95264.00
2023-03-15T03:29:55.124Z,95264.00
2023-03-15T03:30:54.239Z,95268.00
2023-03-15T03:31:55.212Z,95268.00
2023-03-15T03:32:54.319Z,95274.00
2023-03-15T03:33:54.274Z,95280.00
2023-03-15T03:34:55.305Z,95280.00
2023-03-15T03:35:54.517Z,95282.00
2023-03-15T03:36:55.377Z,95286.00
2023-03-15T03:37:55.397Z,95292.00
2023-03-15T03:38:55.443Z,95294.00
2023-03-15T03:39:55.472Z,95294.00
2023-03-15T03:40:55.493Z,95294.00
2023-03-15T03:41:55.754Z,95298.00
2023-03-15T03:42:55.528Z,95300.00
2023-03-15T03:43:55.579Z,95300.00
2023-03-15T03:44:55.596Z,95300.00
2023-03-15T03:45:55.622Z,95304.00
2023-03-15T03:46:54.613Z,95311.00
2023-03-15T03:47:55.640Z,95315.00
2023-03-15T03:48:55.670Z,95317.00
2023-03-15T03:49:55.681Z,95317.00
2023-03-15T03:50:54.688Z,95319.00
2023-03-15T03:51:55.728Z,95321.00
2023-03-15T03:52:55.750Z,95323.00
2023-03-15T03:53:54.757Z,95323.00
2023-03-15T03:54:55.805Z,95325.00
2023-03-15T03:55:55.847Z,95327.00
2023-03-15T03:56:55.829Z,95327.00
2023-03-15T03:57:55.834Z,95329.00
2023-03-15T03:58:55.843Z,95333.00
2023-03-15T03:59:55.880Z,95337.00
2023-03-15T04:00:55.881Z,95341.00
2023-03-15T04:01:55.952Z,95343.00
2023-03-15T04:02:55.015Z,95343.00
2023-03-15T04:03:54.927Z,95347.00
2023-03-15T04:04:56.053Z,95349.00
2023-03-15T04:05:55.962Z,95353.00
2023-03-15T04:06:54.982Z,95356.00
2023-03-15T04:07:56.010Z,95362.00
2023-03-15T04:08:56.019Z,95368.00
2023-03-15T04:09:56.049Z,95370.00
2023-03-15T04:10:56.058Z,95372.00
2023-03-15T04:11:56.072Z,95372.00
2023-03-15T04:12:55.104Z,95376.00
2023-03-15T04:13:56.117Z,95382.00
2023-03-15T04:14:55.117Z,95382.00
2023-03-15T04:15:55.309Z,95386.00
2023-03-15T04:16:55.147Z,95388.00
2023-03-15T04:17:55.172Z,95390.00
2023-03-15T04:18:55.168Z,95394.00
2023-03-15T04:19:56.209Z,95390.00
2023-03-15T04:20:56.203Z,95394.00
2023-03-15T04:21:55.249Z,95402.00
2023-03-15T04:22:56.278Z,95409.00
2023-03-15T04:23:56.281Z,95409.00
2023-03-15T04:24:56.322Z,95415.00
2023-03-15T04:25:56.336Z,95419.00
2023-03-15T04:26:56.371Z,95423.00
2023-03-15T04:27:56.387Z,95427.00
2023-03-15T04:28:55.406Z,95431.00
2023-03-15T04:29:56.432Z,95435.00
2023-03-15T04:30:56.579Z,95439.00
2023-03-15T04:31:56.466Z,95431.00
2023-03-15T04:32:56.841Z,95433.00
2023-03-15T04:33:56.529Z,95435.00
2023-03-15T04:34:55.511Z,95441.00
2023-03-15T04:35:55.625Z,95451.00
2023-03-15T04:36:55.565Z,95447.00
2023-03-15T04:37:56.585Z,95433.00
2023-03-15T04:38:56.607Z,95429.00
2023-03-15T04:39:56.614Z,95431.00
2023-03-15T04:40:55.629Z,95439.00
2023-03-15T04:41:55.648Z,95447.00
2023-03-15T04:42:55.696Z,95453.00
2023-03-15T04:43:56.692Z,95453.00
2023-03-15T04:44:56.703Z,95451.00
2023-03-15T04:45:56.730Z,95447.00
2023-03-15T04:46:55.853Z,95453.00
2023-03-15T04:47:56.778Z,95459.00
2023-03-15T04:48:56.781Z,95464.00
2023-03-15T04:49:55.805Z,95470.00
2023-03-15T04:50:56.822Z,95472.00
2023-03-15T04:51:56.840Z,95472.00
2023-03-15T04:52:56.857Z,95470.00
2023-03-15T04:53:56.885Z,95466.00
2023-03-15T04:54:56.911Z,95468.00
2023-03-15T04:55:56.923Z,95476.00
2023-03-15T04:56:56.941Z,95486.00
2023-03-15T04:57:55.944Z,95490.00
2023-03-15T04:58:56.976Z,95488.00
2023-03-15T04:59:56.987Z,95492.00
2023-03-15T05:00:57.109Z,95486.00
2023-03-15T05:01:57.148Z,95484.00
2023-03-15T05:02:56.094Z,95488.00
2023-03-15T05:03:57.050Z,95498.00
2023-03-15T05:04:57.050Z,95503.00
2023-03-15T05:05:57.069Z,95492.00
2023-03-15T05:06:57.086Z,95492.00
2023-03-15T05:07:57.129Z,95490.00
2023-03-15T05:08:57.135Z,95490.00
2023-03-15T05:09:57.141Z,95494.00
2023-03-15T05:10:57.147Z,95500.00
2023-03-15T05:11:57.161Z,95498.00
2023-03-15T05:12:57.196Z,95496.00
2023-03-15T05:13:57.188Z,95496.00
2023-03-15T05:14:57.208Z,95500.00
2023-03-15T05:15:57.285Z,95503.00
2023-03-15T05:16:56.232Z,95502.00
2023-03-15T05:17:57.303Z,95505.00
2023-03-15T05:18:57.306Z,95513.00
2023-03-15T05:19:57.275Z,95519.00
2023-03-15T05:20:57.297Z,95523.00
2023-03-15T05:21:57.323Z,95525.00
2023-03-15T05:22:57.422Z,95531.00
2023-03-15T05:23:57.382Z,95533.00
2023-03-15T05:24:57.379Z,95535.00
2023-03-15T05:25:57.395Z,95539.00
2023-03-15T05:26:57.450Z,95543.00
2023-03-15T05:27:57.450Z,95543.00
2023-03-15T05:28:57.467Z,95549.00
2023-03-15T05:29:56.488Z,95551.00
2023-03-15T05:30:57.230Z,95557.00
2023-03-15T05:31:57.645Z,95560.00
2023-03-15T05:32:56.615Z,95570.00
2023-03-15T05:33:57.576Z,95570.00
2023-03-15T05:34:57.626Z,95574.00
2023-03-15T05:35:56.752Z,95582.00
2023-03-15T05:36:57.668Z,95586.00
2023-03-15T05:37:57.707Z,95584.00
2023-03-15T05:38:57.729Z,95588.00
2023-03-15T05:39:57.751Z,95592.00
2023-03-15T05:40:56.779Z,95596.00
2023-03-15T05:41:57.796Z,95600.00
2023-03-15T05:42:57.816Z,95604.00
2023-03-15T05:43:57.864Z,95604.00
2023-03-15T05:44:57.860Z,95605.00
2023-03-15T05:45:56.955Z,95605.00
2023-03-15T05:46:57.927Z,95607.00
2023-03-15T05:47:56.959Z,95609.00
2023-03-15T05:48:56.981Z,95615.00
2023-03-15T05:49:58.009Z,95619.00
2023-03-15T05:50:58.080Z,95625.00
2023-03-15T05:51:58.074Z,95627.00
2023-03-15T05:52:58.102Z,95629.00
2023-03-15T05:53:58.125Z,95627.00
2023-03-15T05:54:58.137Z,95627.00
2023-03-15T05:55:57.158Z,95629.00
2023-03-15T05:56:58.184Z,95631.00
2023-03-15T05:57:58.207Z,95633.00
2023-03-15T05:58:58.241Z,95633.00
2023-03-15T05:59:58.269Z,95641.00
2023-03-15T06:00:58.275Z,95643.00
2023-03-15T06:01:58.300Z,95645.00
2023-03-15T06:02:58.394Z,95645.00
2023-03-15T06:03:58.385Z,95641.00
2023-03-15T06:04:58.357Z,95645.00
2023-03-15T06:05:58.376Z,95649.00
2023-03-15T06:06:58.428Z,95654.00
2023-03-15T06:07:58.417Z,95658.00
2023-03-15T06:08:58.456Z,95666.00
2023-03-15T06:09:58.447Z,95670.00
2023-03-15T06:10:58.468Z,95672.00
2023-03-15T06:11:58.493Z,95676.00
2023-03-15T06:12:58.507Z,95676.00
2023-03-15T06:13:57.536Z,95682.00
2023-03-15T06:14:58.539Z,95678.00
2023-03-15T06:15:58.583Z,95682.00
2023-03-15T06:16:58.724Z,95684.00
2023-03-15T06:17:57.626Z,95688.00
2023-03-15T06:18:58.621Z,95690.00
2023-03-15T06:19:58.625Z,95694.00
2023-03-15T06:20:57.662Z,95696.00
2023-03-15T06:21:58.686Z,95700.00
2023-03-15T06:22:58.739Z,95705.00
2023-03-15T06:23:57.716Z,95705.00
2023-03-15T06:24:58.766Z,95711.00
2023-03-15T06:25:58.739Z,95721.00
2023-03-15T06:26:58.774Z,95719.00
2023-03-15T06:27:57.778Z,95721.00
2023-03-15T06:28:58.790Z,95721.00
2023-03-15T06:29:58.796Z,95731.00
2023-03-15T06:30:58.861Z,95723.00
2023-03-15T06:31:58.811Z,95727.00
2023-03-15T06:32:58.898Z,95727.00
2023-03-15T06:33:57.823Z,95739.00
2023-03-15T06:34:58.832Z,95741.00
2023-03-15T06:35:58.906Z,95745.00
2023-03-15T06:36:58.857Z,95745.00
2023-03-15T06:37:58.862Z,95754.00
2023-03-15T06:38:58.919Z,95751.00
2023-03-15T06:39:58.865Z,95754.00
2023-03-15T06:40:58.885Z,95747.00
2023-03-15T06:41:58.893Z,95751.00
2023-03-15T06:42:58.906Z,95754.00
2023-03-15T06:43:58.911Z,95756.00
2023-03-15T06:44:58.917Z,95758.00
2023-03-15T06:45:58.989Z,95758.00
2023-03-15T06:46:58.935Z,95758.00
2023-03-15T06:47:58.937Z,95762.00
2023-03-15T06:48:59.016Z,95764.00
2023-03-15T06:49:59.814Z,95764.00
2023-03-15T06:50:58.950Z,95766.00
2023-03-15T06:51:58.949Z,95764.00
2023-03-15T06:52:58.949Z,95766.00
2023-03-15T06:53:58.949Z,95768.00
2023-03-15T06:54:59.026Z,95772.00
2023-03-15T06:55:58.950Z,95776.00
2023-03-15T06:56:58.960Z,95780.00
2023-03-15T06:57:59.004Z,95776.00
2023-03-15T06:58:59.003Z,95778.00
2023-03-15T06:59:59.073Z,95776.00
2023-03-15T07:00:59.105Z,95774.00
2023-03-15T07:01:58.283Z,95772.00
2023-03-15T07:02:59.240Z,95780.00
2023-03-15T07:03:59.262Z,95776.00
2023-03-15T07:04:59.376Z,95782.00
2023-03-15T07:05:59.347Z,95782.00
2023-03-15T07:06:58.379Z,95788.00
2023-03-15T07:07:59.457Z,95790.00
2023-03-15T07:08:58.450Z,95792.00
2023-03-15T07:09:59.472Z,95794.00
2023-03-15T07:10:59.514Z,95796.00
2023-03-15T07:11:59.501Z,95803.00
2023-03-15T07:12:58.765Z,95798.00
2023-03-15T07:13:59.607Z,95807.00
2023-03-15T07:14:59.600Z,95809.00
2023-03-15T07:15:59.931Z,95809.00
2023-03-15T07:16:59.650Z,95811.00
2023-03-15T07:17:59.716Z,95813.00
2023-03-15T07:18:59.944Z,95815.00
2023-03-15T07:19:59.857Z,95819.00
2023-03-15T07:20:59.969Z,95821.00
2023-03-15T07:21:59.955Z,95825.00
2023-03-15T07:22:59.968Z,95825.00
2023-03-15T07:24:00.001Z,95827.00
2023-03-15T07:25:00.078Z,95831.00
2023-03-15T07:25:59.122Z,95825.00
2023-03-15T07:27:00.269Z,95827.00
2023-03-15T07:28:00.257Z,95829.00
2023-03-15T07:29:00.317Z,95827.00
2023-03-15T07:29:59.575Z,95831.00
2023-03-15T07:31:00.453Z,95831.00
2023-03-15T07:32:00.813Z,95831.00
2023-03-15T07:33:00.709Z,95833.00
2023-03-15T07:34:00.826Z,95835.00
2023-03-15T07:35:00.712Z,95835.00
2023-03-15T07:36:00.819Z,95837.00
2023-03-15T07:37:00.798Z,95837.00
2023-03-15T07:38:00.875Z,95841.00
2023-03-15T07:39:00.920Z,95845.00
2023-03-15T07:40:00.963Z,95845.00
2023-03-15T07:41:01.020Z,95847.00
2023-03-15T07:42:01.048Z,95847.00
2023-03-15T07:43:01.139Z,95851.00
2023-03-15T07:44:01.124Z,95849.00
2023-03-15T07:45:01.192Z,95845.00
2023-03-15T07:46:01.215Z,95853.00
2023-03-15T07:47:01.370Z,95854.00
2023-03-15T07:48:01.277Z,95856.00
2023-03-15T07:49:01.266Z,95854.00
2023-03-15T07:50:00.626Z,95858.00
2023-03-15T07:51:01.310Z,95862.00
2023-03-15T07:52:01.373Z,95866.00
2023-03-15T07:53:01.366Z,95862.00
2023-03-15T07:54:00.870Z,95862.00
2023-03-15T07:55:01.421Z,95866.00
2023-03-15T07:56:00.493Z,95866.00
2023-03-15T07:57:01.493Z,95866.00
2023-03-15T07:58:00.520Z,95864.00
2023-03-15T07:59:01.958Z,95866.00
2023-03-15T08:00:00.600Z,95866.00
2023-03-15T08:01:01.628Z,95870.00
2023-03-15T08:02:03.451Z,95872.00
2023-03-15T08:03:01.776Z,95874.00
2023-03-15T08:04:01.705Z,95872.00
2023-03-15T08:05:01.670Z,95874.00
2023-03-15T08:06:01.678Z,95872.00
2023-03-15T08:07:01.665Z,95870.00
2023-03-15T08:08:01.625Z,95870.00
2023-03-15T08:09:00.628Z,95866.00
2023-03-15T08:10:01.702Z,95870.00
2023-03-15T08:11:01.726Z,95872.00
2023-03-15T08:12:01.897Z,95872.00
2023-03-15T08:13:01.819Z,95868.00
2023-03-15T08:14:01.678Z,95872.00
2023-03-15T08:15:01.721Z,95872.00
2023-03-15T08:16:01.681Z,95874.00
2023-03-15T08:17:01.569Z,95872.00
2023-03-15T08:18:01.607Z,95870.00
2023-03-15T08:19:01.628Z,95872.00
2023-03-15T08:20:00.536Z,95872.00
2023-03-15T08:21:01.777Z,95874.00
2023-03-15T08:22:01.602Z,95876.00
2023-03-15T08:23:00.542Z,95874.00
2023-03-15T08:24:00.536Z,95872.00
2023-03-15T08:25:01.537Z,95870.00
2023-03-15T08:26:01.632Z,95870.00
2023-03-15T08:27:01.514Z,95868.00
2023-03-15T08:28:01.516Z,95870.00
2023-03-15T08:29:01.547Z,95872.00
2023-03-15T08:30:01.535Z,95874.00
2023-03-15T08:31:01.507Z,95872.00
2023-03-15T08:32:01.544Z,95872.00
2023-03-15T08:33:01.509Z,95876.00
2023-03-15T08:34:01.465Z,95876.00
2023-03-15T08:35:00.457Z,95874.00
2023-03-15T08:36:01.552Z,95876.00
2023-03-15T08:37:00.451Z,95880.00
2023-03-15T08:38:02.347Z,95878.00
2023-03-15T08:39:01.506Z,95872.00
2023-03-15T08:40:01.579Z,95872.00
2023-03-15T08:41:01.606Z,95872.00
2023-03-15T08:42:01.616Z,95876.00
2023-03-15T08:43:01.616Z,95872.00
2023-03-15T08:44:01.647Z,95874.00
2023-03-15T08:45:00.662Z,95874.00
2023-03-15T08:46:01.813Z,95870.00
2023-03-15T08:47:00.831Z,95874.00
2023-03-15T08:48:01.751Z,95872.00
2023-03-15T08:49:00.791Z,95878.00
2023-03-15T08:50:02.007Z,95874.00
2023-03-15T08:51:00.799Z,95876.00
2023-03-15T08:52:01.849Z,95874.00
2023-03-15T08:53:00.860Z,95880.00
2023-03-15T08:54:01.867Z,95882.00
2023-03-15T08:55:00.921Z,95880.00
2023-03-15T08:56:01.913Z,95880.00
2023-03-15T08:57:02.012Z,95882.00
2023-03-15T08:58:03.441Z,95882.00
2023-03-15T08:59:01.982Z,95882.00
2023-03-15T09:00:02.032Z,95884.00
2023-03-15T09:01:00.970Z,95880.00
2023-03-15T09:02:01.124Z,95882.00
2023-03-15T09:03:01.969Z,95880.00
2023-03-15T09:04:00.953Z,95878.00
2023-03-15T09:05:01.988Z,95876.00
2023-03-15T09:06:01.952Z,95874.00
2023-03-15T09:07:01.931Z,95872.00
2023-03-15T09:08:01.963Z,95872.00
2023-03-15T09:09:01.909Z,95868.00
2023-03-15T09:10:04.149Z,95870.00
2023-03-15T09:11:01.989Z,95868.00
2023-03-15T09:12:01.925Z,95870.00
2023-03-15T09:13:01.887Z,95864.00
2023-03-15T09:14:01.907Z,95862.00
2023-03-15T09:15:01.866Z,95862.00
2023-03-15T09:16:02.854Z,95862.00
2023-03-15T09:17:00.909Z,95860.00
2023-03-15T09:18:01.382Z,95858.00
2023-03-15T09:19:00.869Z,95858.00
2023-03-15T09:20:01.865Z,95858.00
2023-03-15T09:21:01.846Z,95854.00
2023-03-15T09:22:16.056Z,95853.00
2023-03-15T09:23:01.835Z,95854.00
2023-03-15T09:24:01.824Z,95854.00
2023-03-15T09:25:01.810Z,95858.00
2023-03-15T09:26:01.824Z,95856.00
2023-03-15T09:27:01.803Z,95854.00
2023-03-15T09:28:01.798Z,95854.00
2023-03-15T09:29:01.797Z,95854.00
2023-03-15T09:30:00.838Z,95853.00
2023-03-15T09:31:00.805Z,95851.00
2023-03-15T09:32:01.756Z,95851.00
2023-03-15T09:33:01.831Z,95851.00
2023-03-15T09:34:01.749Z,95847.00
2023-03-15T09:35:01.794Z,95845.00
2023-03-15T09:36:01.788Z,95841.00
2023-03-15T09:37:00.720Z,95845.00
2023-03-15T09:38:01.724Z,95847.00
2023-03-15T09:39:01.701Z,95843.00
2023-03-15T09:40:01.762Z,95841.00
2023-03-15T09:41:01.725Z,95843.00
2023-03-15T09:42:01.732Z,95843.00
2023-03-15T09:43:01.724Z,95843.00
2023-03-15T09:44:01.692Z,95843.00
2023-03-15T09:45:01.883Z,95839.00
2023-03-15T09:46:01.724Z,95837.00
2023-03-15T09:47:01.646Z,95835.00
2023-03-15T09:48:01.730Z,95835.00
2023-03-15T09:49:00.642Z,95835.00
2023-03-15T09:50:01.666Z,95835.00
2023-03-15T09:51:01.660Z,95833.00
2023-03-15T09:52:01.615Z,95833.00
2023-03-15T09:53:01.629Z,95833.00
2023-03-15T09:54:01.628Z,95835.00
2023-03-15T09:55:00.986Z,95835.00
2023-03-15T09:56:01.600Z,95835.00
2023-03-15T09:57:01.624Z,95837.00
2023-03-15T09:58:00.660Z,95835.00
2023-03-15T09:59:03.409Z,95833.00
2023-03-15T10:00:01.944Z,95835.00
2023-03-15T10:01:01.999Z,95833.00
2023-03-15T10:02:01.173Z,95831.00
2023-03-15T10:03:02.101Z,95829.00
2023-03-15T10:04:01.168Z,95831.00
2023-03-15T10:05:02.239Z,95831.00
2023-03-15T10:06:01.268Z,95831.00
2023-03-15T10:07:01.357Z,95835.00
2023-03-15T10:08:02.368Z,95831.00
2023-03-15T10:09:02.445Z,95835.00
2023-03-15T10:10:01.524Z,95831.00
2023-03-15T10:11:01.543Z,95831.00
2023-03-15T10:12:02.582Z,95829.00
2023-03-15T10:13:02.701Z,95831.00
2023-03-15T10:14:02.703Z,95831.00
2023-03-15T10:15:02.701Z,95831.00
2023-03-15T10:16:02.864Z,95831.00
2023-03-15T10:17:02.764Z,95829.00
2023-03-15T10:18:02.811Z,95833.00
2023-03-15T10:19:02.809Z,95829.00
2023-03-15T10:20:01.873Z,95827.00
2023-03-15T10:21:02.924Z,95829.00
2023-03-15T10:22:02.923Z,95829.00
2023-03-15T10:23:02.943Z,95823.00
2023-03-15T10:24:01.961Z,95827.00
2023-03-15T10:25:02.980Z,95827.00
2023-03-15T10:26:02.993Z,95825.00
2023-03-15T10:27:03.006Z,95821.00
2023-03-15T10:28:03.047Z,95819.00
2023-03-15T10:29:03.073Z,95819.00
2023-03-15T10:30:03.088Z,95819.00
2023-03-15T10:31:03.191Z,95819.00
2023-03-15T10:32:03.216Z,95821.00
2023-03-15T10:33:03.298Z,95819.00
2023-03-15T10:34:03.204Z,95819.00
2023-03-15T10:35:03.220Z,95817.00
2023-03-15T10:36:11.015Z,95819.00
2023-03-15T10:37:03.503Z,95819.00
2023-03-15T10:38:03.348Z,95813.00
2023-03-15T10:39:03.305Z,95821.00
2023-03-15T10:40:03.233Z,95823.00
2023-03-15T10:41:03.256Z,95821.00
2023-03-15T10:42:03.220Z,95821.00
2023-03-15T10:43:02.242Z,95819.00
2023-03-15T10:44:03.462Z,95819.00
2023-03-15T10:45:03.238Z,95821.00
2023-03-15T10:46:02.246Z,95817.00
2023-03-15T10:47:16.024Z,95819.00
2023-03-15T10:48:03.198Z,95821.00
2023-03-15T10:49:03.168Z,95825.00
2023-03-15T10:50:03.163Z,95825.00
2023-03-15T10:51:03.401Z,95823.00
2023-03-15T10:52:03.153Z,95817.00
2023-03-15T10:53:03.146Z,95821.00
2023-03-15T10:54:03.206Z,95825.00
2023-03-15T10:55:04.589Z,95825.00
2023-03-15T10:56:02.452Z,95825.00
2023-03-15T10:57:03.627Z,95823.00
2023-03-15T10:58:02.795Z,95825.00
2023-03-15T10:59:12.606Z,95825.00
2023-03-15T11:00:03.658Z,95821.00
2023-03-15T11:01:03.618Z,95819.00
2023-03-15T11:02:03.716Z,95821.00
2023-03-15T11:03:03.558Z,95819.00
2023-03-15T11:05:03.508Z,95821.00
2023-03-15T11:06:02.589Z,95821.00
2023-03-15T11:07:02.502Z,95821.00
2023-03-15T11:08:03.532Z,95823.00
2023-03-15T11:09:02.513Z,95829.00
2023-03-15T11:10:03.616Z,95829.00
2023-03-15T11:11:03.490Z,95827.00
2023-03-15T11:12:03.515Z,95827.00
2023-03-15T11:13:03.466Z,95825.00
2023-03-15T11:14:02.444Z,95825.00
2023-03-15T11:15:02.547Z,95823.00
2023-03-15T11:16:03.516Z,95823.00
2023-03-15T11:17:03.442Z,95821.00
2023-03-15T11:18:02.449Z,95819.00
2023-03-15T11:19:03.510Z,95817.00
2023-03-15T11:20:03.483Z,95819.00
2023-03-15T11:21:03.419Z,95821.00
2023-03-15T11:22:03.450Z,95821.00
2023-03-15T11:23:03.418Z,95823.00
2023-03-15T11:24:02.443Z,95823.00
2023-03-15T11:25:03.590Z,95819.00
2023-03-15T11:26:03.376Z,95827.00
2023-03-15T11:27:02.410Z,95827.00
2023-03-15T11:28:03.384Z,95829.00
2023-03-15T11:29:03.368Z,95829.00
2023-03-15T11:30:03.374Z,95827.00
2023-03-15T11:31:03.433Z,95829.00
2023-03-15T11:32:03.386Z,95823.00
2023-03-15T11:33:03.490Z,95823.00
2023-03-15T11:34:03.476Z,95823.00
2023-03-15T11:35:03.501Z,95819.00
2023-03-15T11:36:03.696Z,95823.00
2023-03-15T11:37:08.480Z,95823.00
2023-03-15T11:38:14.570Z,95825.00
2023-03-15T11:39:03.629Z,95821.00
2023-03-15T11:40:11.578Z,95823.00
2023-03-15T11:41:03.574Z,95821.00
2023-03-15T11:42:02.560Z,95823.00
2023-03-15T11:43:03.617Z,95819.00
2023-03-15T11:44:03.562Z,95821.00
2023-03-15T11:46:04.220Z,95815.00
2023-03-15T11:47:03.520Z,95819.00